sensor_id;sensor_type;location;lat;lon;timestamp;temperature;humidity
15384;DHT22;7790;53.022;12.968;2022-07-11T00:00:42;20.70;50.00
15384;DHT22;7790;53.022;12.968;2022-07-11T00:04:43;20.70;50.10
15384;DHT22;7790;53.022;12.968;2022-07-11T00:08:45;20.70;50.10
15384;DHT22;7790;53.022;12.968;2022-07-11T00:12:46;20.70;50.10
15384;DHT22;7790;53.022;12.968;2022-07-11T00:16:47;20.70;50.20
15384;DHT22;7790;53.022;12.968;2022-07-11T00:20:48;20.70;50.10
15384;DHT22;7790;53.022;12.968;2022-07-11T00:24:49;20.70;50.30
15384;DHT22;7790;53.022;12.968;2022-07-11T00:28:50;20.70;50.30
15384;DHT22;7790;53.022;12.968;2022-07-11T00:32:51;20.70;50.30
15384;DHT22;7790;53.022;12.968;2022-07-11T00:36:52;20.70;50.20
15384;DHT22;7790;53.022;12.968;2022-07-11T00:40:53;20.70;50.30
15384;DHT22;7790;53.022;12.968;2022-07-11T00:44:53;20.70;50.30
15384;DHT22;7790;53.022;12.968;2022-07-11T00:48:55;20.70;50.40
15384;DHT22;7790;53.022;12.968;2022-07-11T00:52:57;20.60;50.30
15384;DHT22;7790;53.022;12.968;2022-07-11T00:56:58;20.60;50.30
15384;DHT22;7790;53.022;12.968;2022-07-11T01:00:59;20.60;50.20
15384;DHT22;7790;53.022;12.968;2022-07-11T01:05:00;20.70;50.20
15384;DHT22;7790;53.022;12.968;2022-07-11T01:09:01;20.60;50.20
15384;DHT22;7790;53.022;12.968;2022-07-11T01:13:02;20.60;50.40
15384;DHT22;7790;53.022;12.968;2022-07-11T01:17:03;20.60;50.30
15384;DHT22;7790;53.022;12.968;2022-07-11T01:21:17;20.60;50.30
15384;DHT22;7790;53.022;12.968;2022-07-11T01:25:19;20.60;50.30
15384;DHT22;7790;53.022;12.968;2022-07-11T01:29:32;20.60;50.20
15384;DHT22;7790;53.022;12.968;2022-07-11T01:33:33;20.60;50.20
15384;DHT22;7790;53.022;12.968;2022-07-11T01:37:34;20.60;50.30
15384;DHT22;7790;53.022;12.968;2022-07-11T01:41:34;20.60;50.30
15384;DHT22;7790;53.022;12.968;2022-07-11T01:45:35;20.60;50.40
15384;DHT22;7790;53.022;12.968;2022-07-11T01:49:36;20.70;50.40
15384;DHT22;7790;53.022;12.968;2022-07-11T01:53:37;20.70;50.40
15384;DHT22;7790;53.022;12.968;2022-07-11T01:57:38;20.70;50.40
15384;DHT22;7790;53.022;12.968;2022-07-11T02:01:39;20.70;50.40
15384;DHT22;7790;53.022;12.968;2022-07-11T02:05:40;20.70;50.50
15384;DHT22;7790;53.022;12.968;2022-07-11T02:09:40;20.70;50.40
15384;DHT22;7790;53.022;12.968;2022-07-11T02:13:41;20.70;50.40
15384;DHT22;7790;53.022;12.968;2022-07-11T02:17:42;20.70;50.30
15384;DHT22;7790;53.022;12.968;2022-07-11T02:21:43;20.70;50.30
15384;DHT22;7790;53.022;12.968;2022-07-11T02:25:44;20.70;50.30
15384;DHT22;7790;53.022;12.968;2022-07-11T02:29:45;20.70;50.20
15384;DHT22;7790;53.022;12.968;2022-07-11T02:33:46;20.70;50.20
15384;DHT22;7790;53.022;12.968;2022-07-11T02:37:47;20.60;50.20
15384;DHT22;7790;53.022;12.968;2022-07-11T02:41:49;20.60;50.10
15384;DHT22;7790;53.022;12.968;2022-07-11T02:45:49;20.60;50.10
15384;DHT22;7790;53.022;12.968;2022-07-11T02:49:50;20.60;50.20
15384;DHT22;7790;53.022;12.968;2022-07-11T02:53:51;20.60;50.00
15384;DHT22;7790;53.022;12.968;2022-07-11T02:57:53;20.60;50.00
15384;DHT22;7790;53.022;12.968;2022-07-11T03:01:54;20.60;50.00
15384;DHT22;7790;53.022;12.968;2022-07-11T03:05:55;20.60;49.90
15384;DHT22;7790;53.022;12.968;2022-07-11T03:09:56;20.60;50.00
15384;DHT22;7790;53.022;12.968;2022-07-11T03:13:57;20.50;50.00
15384;DHT22;7790;53.022;12.968;2022-07-11T03:17:58;20.50;50.00
15384;DHT22;7790;53.022;12.968;2022-07-11T03:21:59;20.50;50.00
15384;DHT22;7790;53.022;12.968;2022-07-11T03:26:00;20.50;50.00
15384;DHT22;7790;53.022;12.968;2022-07-11T03:30:02;20.50;50.00
15384;DHT22;7790;53.022;12.968;2022-07-11T03:34:03;20.50;50.10
15384;DHT22;7790;53.022;12.968;2022-07-11T03:38:04;20.50;50.10
15384;DHT22;7790;53.022;12.968;2022-07-11T03:42:05;20.50;50.20
15384;DHT22;7790;53.022;12.968;2022-07-11T03:46:06;20.40;50.20
15384;DHT22;7790;53.022;12.968;2022-07-11T03:50:07;20.50;50.20
15384;DHT22;7790;53.022;12.968;2022-07-11T03:54:08;20.40;50.20
15384;DHT22;7790;53.022;12.968;2022-07-11T03:58:09;20.40;50.20
15384;DHT22;7790;53.022;12.968;2022-07-11T04:02:10;20.40;50.30
15384;DHT22;7790;53.022;12.968;2022-07-11T04:06:14;20.40;50.30
15384;DHT22;7790;53.022;12.968;2022-07-11T04:10:15;20.40;50.30
15384;DHT22;7790;53.022;12.968;2022-07-11T04:14:19;20.40;50.40
15384;DHT22;7790;53.022;12.968;2022-07-11T04:18:19;20.40;50.50
15384;DHT22;7790;53.022;12.968;2022-07-11T04:22:20;20.40;50.40
15384;DHT22;7790;53.022;12.968;2022-07-11T04:26:21;20.40;50.30
15384;DHT22;7790;53.022;12.968;2022-07-11T04:30:22;20.40;50.40
15384;DHT22;7790;53.022;12.968;2022-07-11T04:34:23;20.40;50.50
15384;DHT22;7790;53.022;12.968;2022-07-11T04:38:23;20.40;50.50
15384;DHT22;7790;53.022;12.968;2022-07-11T04:42:24;20.30;50.50
15384;DHT22;7790;53.022;12.968;2022-07-11T04:46:25;20.30;50.60
15384;DHT22;7790;53.022;12.968;2022-07-11T04:50:27;20.30;50.60
15384;DHT22;7790;53.022;12.968;2022-07-11T04:54:28;20.30;50.80
15384;DHT22;7790;53.022;12.968;2022-07-11T04:58:29;20.30;50.80
15384;DHT22;7790;53.022;12.968;2022-07-11T05:02:33;20.30;50.80
15384;DHT22;7790;53.022;12.968;2022-07-11T05:06:34;20.40;51.00
15384;DHT22;7790;53.022;12.968;2022-07-11T05:10:35;20.30;50.90
15384;DHT22;7790;53.022;12.968;2022-07-11T05:14:36;20.30;51.00
15384;DHT22;7790;53.022;12.968;2022-07-11T05:18:37;20.30;51.10
15384;DHT22;7790;53.022;12.968;2022-07-11T05:22:38;20.30;51.10
15384;DHT22;7790;53.022;12.968;2022-07-11T05:26:39;20.30;51.10
15384;DHT22;7790;53.022;12.968;2022-07-11T05:30:40;20.30;51.10
15384;DHT22;7790;53.022;12.968;2022-07-11T05:34:40;20.30;51.30
15384;DHT22;7790;53.022;12.968;2022-07-11T05:38:41;20.30;51.30
15384;DHT22;7790;53.022;12.968;2022-07-11T05:42:42;20.30;51.40
15384;DHT22;7790;53.022;12.968;2022-07-11T05:46:43;20.40;51.40
15384;DHT22;7790;53.022;12.968;2022-07-11T05:50:44;20.30;51.40
15384;DHT22;7790;53.022;12.968;2022-07-11T05:54:45;20.40;51.40
15384;DHT22;7790;53.022;12.968;2022-07-11T05:58:45;20.40;51.60
15384;DHT22;7790;53.022;12.968;2022-07-11T06:02:46;20.30;51.50
15384;DHT22;7790;53.022;12.968;2022-07-11T06:06:48;20.40;51.60
15384;DHT22;7790;53.022;12.968;2022-07-11T06:10:48;20.40;51.50
15384;DHT22;7790;53.022;12.968;2022-07-11T06:14:49;20.50;51.90
15384;DHT22;7790;53.022;12.968;2022-07-11T06:18:50;20.50;51.60
15384;DHT22;7790;53.022;12.968;2022-07-11T06:22:51;20.50;51.60
15384;DHT22;7790;53.022;12.968;2022-07-11T06:26:53;20.50;51.50
15384;DHT22;7790;53.022;12.968;2022-07-11T06:31:00;20.50;51.50
15384;DHT22;7790;53.022;12.968;2022-07-11T06:35:01;20.50;51.70
15384;DHT22;7790;53.022;12.968;2022-07-11T06:39:02;20.50;51.80
15384;DHT22;7790;53.022;12.968;2022-07-11T06:43:03;20.60;52.50
15384;DHT22;7790;53.022;12.968;2022-07-11T06:47:05;20.60;52.20
15384;DHT22;7790;53.022;12.968;2022-07-11T06:51:06;20.70;52.20
15384;DHT22;7790;53.022;12.968;2022-07-11T06:55:07;20.70;52.20
15384;DHT22;7790;53.022;12.968;2022-07-11T06:59:08;20.70;52.20
15384;DHT22;7790;53.022;12.968;2022-07-11T07:03:09;20.80;52.20
15384;DHT22;7790;53.022;12.968;2022-07-11T07:07:09;20.80;52.20
15384;DHT22;7790;53.022;12.968;2022-07-11T07:11:10;20.80;52.20
15384;DHT22;7790;53.022;12.968;2022-07-11T07:15:11;20.90;52.20
15384;DHT22;7790;53.022;12.968;2022-07-11T07:19:13;20.90;52.20
15384;DHT22;7790;53.022;12.968;2022-07-11T07:23:13;21.00;52.20
15384;DHT22;7790;53.022;12.968;2022-07-11T07:27:14;21.00;52.10
15384;DHT22;7790;53.022;12.968;2022-07-11T07:31:15;21.00;52.00
15384;DHT22;7790;53.022;12.968;2022-07-11T07:35:16;21.00;52.00
15384;DHT22;7790;53.022;12.968;2022-07-11T07:39:17;21.10;52.10
15384;DHT22;7790;53.022;12.968;2022-07-11T07:43:18;21.10;52.00
15384;DHT22;7790;53.022;12.968;2022-07-11T07:47:19;21.10;51.80
15384;DHT22;7790;53.022;12.968;2022-07-11T07:51:21;21.20;51.90
15384;DHT22;7790;53.022;12.968;2022-07-11T07:55:22;21.20;51.80
15384;DHT22;7790;53.022;12.968;2022-07-11T07:59:23;21.30;51.90
15384;DHT22;7790;53.022;12.968;2022-07-11T08:03:25;21.30;51.90
15384;DHT22;7790;53.022;12.968;2022-07-11T08:07:26;21.40;51.90
15384;DHT22;7790;53.022;12.968;2022-07-11T08:11:27;21.40;51.50
15384;DHT22;7790;53.022;12.968;2022-07-11T08:15:28;21.40;51.60
15384;DHT22;7790;53.022;12.968;2022-07-11T08:19:29;21.40;51.80
15384;DHT22;7790;53.022;12.968;2022-07-11T08:23:31;21.50;51.60
15384;DHT22;7790;53.022;12.968;2022-07-11T08:27:32;21.50;51.60
15384;DHT22;7790;53.022;12.968;2022-07-11T08:31:33;21.50;51.50
15384;DHT22;7790;53.022;12.968;2022-07-11T08:35:34;21.50;51.10
15384;DHT22;7790;53.022;12.968;2022-07-11T08:39:35;21.60;51.30
15384;DHT22;7790;53.022;12.968;2022-07-11T08:43:35;21.60;51.30
15384;DHT22;7790;53.022;12.968;2022-07-11T08:47:36;21.60;51.20
15384;DHT22;7790;53.022;12.968;2022-07-11T08:51:37;21.60;51.00
15384;DHT22;7790;53.022;12.968;2022-07-11T08:55:39;21.70;51.20
15384;DHT22;7790;53.022;12.968;2022-07-11T08:59:41;21.70;51.00
15384;DHT22;7790;53.022;12.968;2022-07-11T09:03:43;21.80;50.90
15384;DHT22;7790;53.022;12.968;2022-07-11T09:07:49;21.80;51.00
15384;DHT22;7790;53.022;12.968;2022-07-11T09:11:55;21.80;50.90
15384;DHT22;7790;53.022;12.968;2022-07-11T09:16:08;21.70;50.90
15384;DHT22;7790;53.022;12.968;2022-07-11T09:20:09;21.80;50.90
15384;DHT22;7790;53.022;12.968;2022-07-11T09:24:10;21.80;50.90
15384;DHT22;7790;53.022;12.968;2022-07-11T09:28:29;21.80;50.90
15384;DHT22;7790;53.022;12.968;2022-07-11T09:32:42;21.80;50.80
15384;DHT22;7790;53.022;12.968;2022-07-11T09:36:53;21.90;50.90
15384;DHT22;7790;53.022;12.968;2022-07-11T09:40:55;21.90;50.80
15384;DHT22;7790;53.022;12.968;2022-07-11T09:45:10;21.90;50.80
15384;DHT22;7790;53.022;12.968;2022-07-11T09:49:14;21.90;50.80
15384;DHT22;7790;53.022;12.968;2022-07-11T09:53:15;21.90;51.10
15384;DHT22;7790;53.022;12.968;2022-07-11T09:57:15;21.90;50.80
15384;DHT22;7790;53.022;12.968;2022-07-11T10:01:16;22.00;50.80
15384;DHT22;7790;53.022;12.968;2022-07-11T10:05:17;22.00;50.70
15384;DHT22;7790;53.022;12.968;2022-07-11T10:09:18;22.00;50.70
15384;DHT22;7790;53.022;12.968;2022-07-11T10:13:19;22.00;50.70
15384;DHT22;7790;53.022;12.968;2022-07-11T10:21:47;22.00;50.40
15384;DHT22;7790;53.022;12.968;2022-07-11T10:30:13;22.00;50.30
15384;DHT22;7790;53.022;12.968;2022-07-11T10:34:34;22.00;50.40
15384;DHT22;7790;53.022;12.968;2022-07-11T10:38:35;22.00;50.40
15384;DHT22;7790;53.022;12.968;2022-07-11T10:42:41;22.00;50.40
15384;DHT22;7790;53.022;12.968;2022-07-11T10:46:42;22.00;50.20
15384;DHT22;7790;53.022;12.968;2022-07-11T10:50:44;22.10;50.40
15384;DHT22;7790;53.022;12.968;2022-07-11T10:59:10;22.10;50.90
15384;DHT22;7790;53.022;12.968;2022-07-11T11:03:12;22.10;51.00
15384;DHT22;7790;53.022;12.968;2022-07-11T11:07:35;22.20;50.90
15384;DHT22;7790;53.022;12.968;2022-07-11T11:11:37;22.20;50.90
15384;DHT22;7790;53.022;12.968;2022-07-11T11:15:45;22.30;50.70
15384;DHT22;7790;53.022;12.968;2022-07-11T11:28:04;22.30;50.70
15384;DHT22;7790;53.022;12.968;2022-07-11T11:32:05;22.30;50.70
15384;DHT22;7790;53.022;12.968;2022-07-11T11:36:09;22.40;50.70
15384;DHT22;7790;53.022;12.968;2022-07-11T11:40:12;22.30;50.70
15384;DHT22;7790;53.022;12.968;2022-07-11T11:44:13;22.30;50.70
15384;DHT22;7790;53.022;12.968;2022-07-11T11:48:33;22.30;50.60
15384;DHT22;7790;53.022;12.968;2022-07-11T11:52:34;22.20;50.60
15384;DHT22;7790;53.022;12.968;2022-07-11T11:56:36;22.30;50.60
15384;DHT22;7790;53.022;12.968;2022-07-11T12:00:39;22.30;50.50
15384;DHT22;7790;53.022;12.968;2022-07-11T12:04:40;22.30;50.50
15384;DHT22;7790;53.022;12.968;2022-07-11T12:08:41;22.20;50.50
15384;DHT22;7790;53.022;12.968;2022-07-11T12:12:42;22.30;50.60
15384;DHT22;7790;53.022;12.968;2022-07-11T12:16:47;22.20;50.50
15384;DHT22;7790;53.022;12.968;2022-07-11T12:20:48;22.20;50.50
15384;DHT22;7790;53.022;12.968;2022-07-11T12:24:51;22.20;50.50
15384;DHT22;7790;53.022;12.968;2022-07-11T12:29:19;22.20;50.60
15384;DHT22;7790;53.022;12.968;2022-07-11T12:33:20;22.20;50.60
15384;DHT22;7790;53.022;12.968;2022-07-11T12:37:22;22.20;50.70
15384;DHT22;7790;53.022;12.968;2022-07-11T12:41:22;22.20;50.70
15384;DHT22;7790;53.022;12.968;2022-07-11T12:45:23;22.20;50.70
15384;DHT22;7790;53.022;12.968;2022-07-11T12:49:26;22.20;50.70
15384;DHT22;7790;53.022;12.968;2022-07-11T12:53:29;22.10;50.70
15384;DHT22;7790;53.022;12.968;2022-07-11T12:57:29;22.10;50.70
15384;DHT22;7790;53.022;12.968;2022-07-11T13:01:31;22.10;50.70
15384;DHT22;7790;53.022;12.968;2022-07-11T13:05:51;22.10;50.70
15384;DHT22;7790;53.022;12.968;2022-07-11T13:09:52;22.10;50.70
15384;DHT22;7790;53.022;12.968;2022-07-11T13:13:52;22.10;50.70
15384;DHT22;7790;53.022;12.968;2022-07-11T13:17:54;22.10;50.70
15384;DHT22;7790;53.022;12.968;2022-07-11T13:21:55;22.10;50.80
15384;DHT22;7790;53.022;12.968;2022-07-11T13:25:56;22.10;48.20
15384;DHT22;7790;53.022;12.968;2022-07-11T13:29:57;22.10;47.00
15384;DHT22;7790;53.022;12.968;2022-07-11T13:33:58;22.10;46.60
15384;DHT22;7790;53.022;12.968;2022-07-11T13:37:59;22.10;46.20
15384;DHT22;7790;53.022;12.968;2022-07-11T13:42:00;22.10;46.10
15384;DHT22;7790;53.022;12.968;2022-07-11T13:46:00;22.10;45.70
15384;DHT22;7790;53.022;12.968;2022-07-11T13:50:01;22.20;45.50
15384;DHT22;7790;53.022;12.968;2022-07-11T13:54:03;22.20;45.40
15384;DHT22;7790;53.022;12.968;2022-07-11T13:58:03;22.20;45.30
15384;DHT22;7790;53.022;12.968;2022-07-11T14:02:04;22.10;45.70
15384;DHT22;7790;53.022;12.968;2022-07-11T14:06:05;22.10;46.20
15384;DHT22;7790;53.022;12.968;2022-07-11T14:10:07;22.00;46.10
15384;DHT22;7790;53.022;12.968;2022-07-11T14:14:08;22.00;46.10
15384;DHT22;7790;53.022;12.968;2022-07-11T14:18:09;22.10;46.80
15384;DHT22;7790;53.022;12.968;2022-07-11T14:22:10;22.00;46.40
15384;DHT22;7790;53.022;12.968;2022-07-11T14:26:11;22.00;46.30
15384;DHT22;7790;53.022;12.968;2022-07-11T14:30:12;21.90;46.70
15384;DHT22;7790;53.022;12.968;2022-07-11T14:34:12;22.00;46.70
15384;DHT22;7790;53.022;12.968;2022-07-11T14:38:13;21.90;47.30
15384;DHT22;7790;53.022;12.968;2022-07-11T14:42:14;21.90;46.80
15384;DHT22;7790;53.022;12.968;2022-07-11T14:46:15;21.90;47.60
15384;DHT22;7790;53.022;12.968;2022-07-11T14:50:19;21.90;47.50
15384;DHT22;7790;53.022;12.968;2022-07-11T14:54:20;21.80;47.70
15384;DHT22;7790;53.022;12.968;2022-07-11T14:58:21;21.80;47.60
15384;DHT22;7790;53.022;12.968;2022-07-11T15:02:21;21.80;47.60
15384;DHT22;7790;53.022;12.968;2022-07-11T15:06:41;21.90;47.90
15384;DHT22;7790;53.022;12.968;2022-07-11T15:11:00;21.90;47.80
15384;DHT22;7790;53.022;12.968;2022-07-11T15:15:19;21.90;47.90
15384;DHT22;7790;53.022;12.968;2022-07-11T15:19:20;21.80;48.10
15384;DHT22;7790;53.022;12.968;2022-07-11T15:23:22;21.90;48.10
15384;DHT22;7790;53.022;12.968;2022-07-11T15:27:23;21.80;48.00
15384;DHT22;7790;53.022;12.968;2022-07-11T15:31:25;21.80;48.00
15384;DHT22;7790;53.022;12.968;2022-07-11T15:35:26;21.80;47.90
15384;DHT22;7790;53.022;12.968;2022-07-11T15:39:27;21.90;48.30
15384;DHT22;7790;53.022;12.968;2022-07-11T15:43:28;21.90;48.20
15384;DHT22;7790;53.022;12.968;2022-07-11T15:47:29;21.90;47.70
15384;DHT22;7790;53.022;12.968;2022-07-11T15:51:29;21.90;47.60
15384;DHT22;7790;53.022;12.968;2022-07-11T15:55:30;21.90;48.20
15384;DHT22;7790;53.022;12.968;2022-07-11T15:59:31;21.90;48.00
15384;DHT22;7790;53.022;12.968;2022-07-11T16:03:34;21.90;48.20
15384;DHT22;7790;53.022;12.968;2022-07-11T16:07:36;21.90;48.10
15384;DHT22;7790;53.022;12.968;2022-07-11T16:11:36;21.90;48.40
15384;DHT22;7790;53.022;12.968;2022-07-11T16:15:37;21.90;47.90
15384;DHT22;7790;53.022;12.968;2022-07-11T16:19:38;21.90;47.90
15384;DHT22;7790;53.022;12.968;2022-07-11T16:23:39;21.90;48.80
15384;DHT22;7790;53.022;12.968;2022-07-11T16:27:40;21.90;48.50
15384;DHT22;7790;53.022;12.968;2022-07-11T16:31:40;21.90;49.00
15384;DHT22;7790;53.022;12.968;2022-07-11T16:35:41;21.90;49.00
15384;DHT22;7790;53.022;12.968;2022-07-11T16:39:42;21.90;49.60
15384;DHT22;7790;53.022;12.968;2022-07-11T16:44:01;21.90;48.50
15384;DHT22;7790;53.022;12.968;2022-07-11T16:48:02;22.00;49.10
15384;DHT22;7790;53.022;12.968;2022-07-11T16:52:03;21.90;48.70
15384;DHT22;7790;53.022;12.968;2022-07-11T16:56:05;21.90;48.80
15384;DHT22;7790;53.022;12.968;2022-07-11T17:00:06;21.90;48.30
15384;DHT22;7790;53.022;12.968;2022-07-11T17:04:08;21.90;48.70
15384;DHT22;7790;53.022;12.968;2022-07-11T17:08:12;21.90;48.70
15384;DHT22;7790;53.022;12.968;2022-07-11T17:12:32;21.90;48.70
15384;DHT22;7790;53.022;12.968;2022-07-11T17:16:33;21.90;48.60
15384;DHT22;7790;53.022;12.968;2022-07-11T17:20:34;21.90;48.20
15384;DHT22;7790;53.022;12.968;2022-07-11T17:24:34;21.80;48.60
15384;DHT22;7790;53.022;12.968;2022-07-11T17:28:36;21.80;48.60
15384;DHT22;7790;53.022;12.968;2022-07-11T17:32:37;21.80;48.50
15384;DHT22;7790;53.022;12.968;2022-07-11T17:36:38;21.80;48.60
15384;DHT22;7790;53.022;12.968;2022-07-11T17:40:39;21.80;48.40
15384;DHT22;7790;53.022;12.968;2022-07-11T17:44:41;21.80;48.40
15384;DHT22;7790;53.022;12.968;2022-07-11T17:48:42;21.80;48.60
15384;DHT22;7790;53.022;12.968;2022-07-11T17:52:43;21.80;48.70
15384;DHT22;7790;53.022;12.968;2022-07-11T17:56:44;21.80;48.80
15384;DHT22;7790;53.022;12.968;2022-07-11T18:00:46;21.80;48.20
15384;DHT22;7790;53.022;12.968;2022-07-11T18:04:47;21.80;48.80
15384;DHT22;7790;53.022;12.968;2022-07-11T18:08:48;21.80;48.40
15384;DHT22;7790;53.022;12.968;2022-07-11T18:12:49;21.80;48.60
15384;DHT22;7790;53.022;12.968;2022-07-11T18:16:50;21.80;48.50
15384;DHT22;7790;53.022;12.968;2022-07-11T18:20:51;21.80;48.60
15384;DHT22;7790;53.022;12.968;2022-07-11T18:24:52;21.80;48.60
15384;DHT22;7790;53.022;12.968;2022-07-11T18:28:53;21.80;48.60
15384;DHT22;7790;53.022;12.968;2022-07-11T18:32:54;21.80;48.50
15384;DHT22;7790;53.022;12.968;2022-07-11T18:36:55;21.80;48.50
15384;DHT22;7790;53.022;12.968;2022-07-11T18:40:56;21.80;48.50
15384;DHT22;7790;53.022;12.968;2022-07-11T18:45:16;21.80;48.40
15384;DHT22;7790;53.022;12.968;2022-07-11T18:49:17;21.80;48.30
15384;DHT22;7790;53.022;12.968;2022-07-11T18:53:18;21.70;48.60
15384;DHT22;7790;53.022;12.968;2022-07-11T18:57:18;21.80;48.20
15384;DHT22;7790;53.022;12.968;2022-07-11T19:01:19;21.80;48.80
15384;DHT22;7790;53.022;12.968;2022-07-11T19:05:20;21.80;48.50
15384;DHT22;7790;53.022;12.968;2022-07-11T19:09:24;21.80;48.30
15384;DHT22;7790;53.022;12.968;2022-07-11T19:13:25;21.80;48.10
15384;DHT22;7790;53.022;12.968;2022-07-11T19:17:26;21.80;47.90
15384;DHT22;7790;53.022;12.968;2022-07-11T19:21:27;21.80;48.10
15384;DHT22;7790;53.022;12.968;2022-07-11T19:25:28;21.90;48.10
15384;DHT22;7790;53.022;12.968;2022-07-11T19:29:29;21.90;48.10
15384;DHT22;7790;53.022;12.968;2022-07-11T19:33:30;21.90;48.10
15384;DHT22;7790;53.022;12.968;2022-07-11T19:37:31;21.90;48.30
15384;DHT22;7790;53.022;12.968;2022-07-11T19:41:31;21.90;48.00
15384;DHT22;7790;53.022;12.968;2022-07-11T19:45:32;21.90;48.00
15384;DHT22;7790;53.022;12.968;2022-07-11T19:49:33;21.90;48.00
15384;DHT22;7790;53.022;12.968;2022-07-11T19:53:34;22.00;47.80
15384;DHT22;7790;53.022;12.968;2022-07-11T19:57:35;22.00;47.60
15384;DHT22;7790;53.022;12.968;2022-07-11T20:01:35;21.90;47.70
15384;DHT22;7790;53.022;12.968;2022-07-11T20:05:37;21.90;47.70
15384;DHT22;7790;53.022;12.968;2022-07-11T20:09:38;21.80;48.10
15384;DHT22;7790;53.022;12.968;2022-07-11T20:13:38;21.80;48.30
15384;DHT22;7790;53.022;12.968;2022-07-11T20:17:39;21.80;48.30
15384;DHT22;7790;53.022;12.968;2022-07-11T20:21:40;21.70;48.40
15384;DHT22;7790;53.022;12.968;2022-07-11T20:25:41;21.70;48.60
15384;DHT22;7790;53.022;12.968;2022-07-11T20:29:42;21.60;48.70
15384;DHT22;7790;53.022;12.968;2022-07-11T20:33:43;21.60;48.70
15384;DHT22;7790;53.022;12.968;2022-07-11T20:37:44;21.60;48.70
15384;DHT22;7790;53.022;12.968;2022-07-11T20:41:45;21.50;48.70
15384;DHT22;7790;53.022;12.968;2022-07-11T20:45:45;21.50;48.70
15384;DHT22;7790;53.022;12.968;2022-07-11T20:49:46;21.50;48.70
15384;DHT22;7790;53.022;12.968;2022-07-11T20:53:47;21.40;48.80
15384;DHT22;7790;53.022;12.968;2022-07-11T20:57:48;21.40;48.80
15384;DHT22;7790;53.022;12.968;2022-07-11T21:01:50;21.40;48.80
15384;DHT22;7790;53.022;12.968;2022-07-11T21:05:52;21.40;48.90
15384;DHT22;7790;53.022;12.968;2022-07-11T21:09:52;21.30;48.80
15384;DHT22;7790;53.022;12.968;2022-07-11T21:13:57;21.30;48.90
15384;DHT22;7790;53.022;12.968;2022-07-11T21:17:57;21.30;49.00
15384;DHT22;7790;53.022;12.968;2022-07-11T21:21:58;21.30;49.00
15384;DHT22;7790;53.022;12.968;2022-07-11T21:25:59;21.30;49.00
15384;DHT22;7790;53.022;12.968;2022-07-11T21:30:00;21.20;48.90
15384;DHT22;7790;53.022;12.968;2022-07-11T21:34:01;21.20;49.00
15384;DHT22;7790;53.022;12.968;2022-07-11T21:38:03;21.20;49.00
15384;DHT22;7790;53.022;12.968;2022-07-11T21:42:04;21.20;49.00
15384;DHT22;7790;53.022;12.968;2022-07-11T21:46:05;21.10;49.00
15384;DHT22;7790;53.022;12.968;2022-07-11T21:50:06;21.10;48.90
15384;DHT22;7790;53.022;12.968;2022-07-11T21:54:07;21.10;49.00
15384;DHT22;7790;53.022;12.968;2022-07-11T21:58:08;21.10;49.00
15384;DHT22;7790;53.022;12.968;2022-07-11T22:02:09;21.10;49.00
15384;DHT22;7790;53.022;12.968;2022-07-11T22:06:09;21.00;49.00
15384;DHT22;7790;53.022;12.968;2022-07-11T22:10:11;21.10;49.10
15384;DHT22;7790;53.022;12.968;2022-07-11T22:14:11;21.00;49.10
15384;DHT22;7790;53.022;12.968;2022-07-11T22:18:12;21.00;49.00
15384;DHT22;7790;53.022;12.968;2022-07-11T22:22:13;21.00;49.00
15384;DHT22;7790;53.022;12.968;2022-07-11T22:26:14;21.00;49.00
15384;DHT22;7790;53.022;12.968;2022-07-11T22:30:19;21.00;49.00
15384;DHT22;7790;53.022;12.968;2022-07-11T22:34:22;20.90;48.90
15384;DHT22;7790;53.022;12.968;2022-07-11T22:38:22;20.90;48.90
15384;DHT22;7790;53.022;12.968;2022-07-11T22:42:23;20.90;49.00
15384;DHT22;7790;53.022;12.968;2022-07-11T22:46:24;20.90;49.00
15384;DHT22;7790;53.022;12.968;2022-07-11T22:50:25;20.90;49.00
15384;DHT22;7790;53.022;12.968;2022-07-11T22:54:26;20.80;48.90
15384;DHT22;7790;53.022;12.968;2022-07-11T22:58:27;20.80;49.00
15384;DHT22;7790;53.022;12.968;2022-07-11T23:02:28;20.80;49.00
15384;DHT22;7790;53.022;12.968;2022-07-11T23:06:29;20.80;49.10
15384;DHT22;7790;53.022;12.968;2022-07-11T23:10:30;20.80;49.10
15384;DHT22;7790;53.022;12.968;2022-07-11T23:14:31;20.70;49.10
15384;DHT22;7790;53.022;12.968;2022-07-11T23:18:32;20.70;49.10
15384;DHT22;7790;53.022;12.968;2022-07-11T23:22:32;20.70;49.10
15384;DHT22;7790;53.022;12.968;2022-07-11T23:26:33;20.70;49.10
15384;DHT22;7790;53.022;12.968;2022-07-11T23:30:34;20.70;49.20
15384;DHT22;7790;53.022;12.968;2022-07-11T23:34:35;20.70;49.30
15384;DHT22;7790;53.022;12.968;2022-07-11T23:38:35;20.70;49.20
15384;DHT22;7790;53.022;12.968;2022-07-11T23:42:37;20.60;49.00
15384;DHT22;7790;53.022;12.968;2022-07-11T23:46:38;20.60;49.10
15384;DHT22;7790;53.022;12.968;2022-07-11T23:50:39;20.60;49.10
15384;DHT22;7790;53.022;12.968;2022-07-11T23:54:40;20.60;49.30
15384;DHT22;7790;53.022;12.968;2022-07-11T23:58:41;20.60;49.00
